Time;durP1;ratioP1;P1;durP2;ratioP2;P2;SDS_P1;SDS_P2;PMS_P1;PMS_P2;Temp;Humidity;BMP_temperature;BMP_pressure;BME280_temperature;BME280_humidity;BME280_pressure;Samples;Min_cycle;Max_cycle;Signal;HPM_P1;HPM_P2
2023/10/25 00:00:05;;;;;;;12.68;6.35;;;;;;;;;;5161731;27;20046;-80
2023/10/25 00:02:31;;;;;;;8.25;6.22;;;;;;;;;;5180016;27;20052;-80
2023/10/25 00:04:57;;;;;;;7.90;5.15;;;;;;;;;;5179981;27;20067;-80
2023/10/25 00:07:23;;;;;;;10.63;5.35;;;;;;;;;;5161652;27;20497;-80
2023/10/25 00:09:49;;;;;;;10.27;5.63;;;;;;;;;;5144411;27;20061;-80
2023/10/25 00:12:15;;;;;;;8.00;5.28;;;;;;;;;;5144135;27;20101;-80
2023/10/25 00:14:41;;;;;;;12.18;5.43;;;;;;;;;;5161047;27;20125;-80
2023/10/25 00:17:07;;;;;;;7.97;5.05;;;;;;;;;;5127181;27;20118;-80
2023/10/25 00:19:34;;;;;;;7.00;5.30;;;;;;;;;;5180254;27;20426;-80
2023/10/25 00:22:00;;;;;;;8.65;5.00;;;;;;;;;;5161023;27;20390;-79
2023/10/25 00:24:26;;;;;;;6.78;5.18;;;;;;;;;;5179553;27;20077;-80
2023/10/25 00:26:52;;;;;;;5.85;5.25;;;;;;;;;;5161217;27;20042;-80
2023/10/25 00:29:18;;;;;;;8.27;5.07;;;;;;;;;;5160826;27;20050;-80
2023/10/25 00:31:45;;;;;;;9.38;5.95;;;;;;;;;;5179462;27;20502;-80
2023/10/25 00:34:11;;;;;;;10.38;5.55;;;;;;;;;;5143628;27;20392;-80
2023/10/25 00:36:37;;;;;;;6.43;5.13;;;;;;;;;;5161597;27;20161;-80
2023/10/25 00:39:03;;;;;;;8.43;5.78;;;;;;;;;;5160675;27;20046;-80
2023/10/25 00:41:29;;;;;;;8.88;5.38;;;;;;;;;;5161182;27;20450;-80
2023/10/25 00:43:55;;;;;;;9.77;6.22;;;;;;;;;;5143576;27;20141;-80
2023/10/25 00:46:29;;;;;;;10.35;5.72;;;;;;;;;;5144366;27;20045;-80
2023/10/25 00:48:57;;;;;;;11.35;5.38;;;;;;;;;;5160497;27;20042;-80
2023/10/25 00:51:23;;;;;;;11.27;5.35;;;;;;;;;;5143691;27;20046;-80
2023/10/25 00:53:53;;;;;;;9.23;5.57;;;;;;;;;;5160024;27;20110;-80
2023/10/25 00:56:21;;;;;;;7.72;5.10;;;;;;;;;;5143703;27;20072;-80
2023/10/25 00:58:52;;;;;;;10.55;5.35;;;;;;;;;;5143175;27;20042;-80
2023/10/25 01:01:19;;;;;;;6.18;4.72;;;;;;;;;;5160262;27;20050;-80
2023/10/25 01:03:45;;;;;;;9.32;5.63;;;;;;;;;;5160433;27;20086;-80
2023/10/25 01:06:12;;;;;;;10.93;5.63;;;;;;;;;;5160273;27;20094;-80
2023/10/25 01:08:38;;;;;;;8.82;5.15;;;;;;;;;;5160825;27;20050;-79
2023/10/25 01:11:04;;;;;;;8.48;4.53;;;;;;;;;;5143042;27;20082;-79
2023/10/25 01:13:30;;;;;;;8.32;4.80;;;;;;;;;;5142761;27;20034;-79
2023/10/25 01:15:56;;;;;;;8.50;5.20;;;;;;;;;;5142840;27;20130;-80
2023/10/25 01:18:23;;;;;;;8.20;5.15;;;;;;;;;;5125817;27;20385;-80
2023/10/25 01:20:49;;;;;;;8.50;5.30;;;;;;;;;;5142948;27;20046;-79
2023/10/25 01:23:15;;;;;;;10.18;5.53;;;;;;;;;;5159751;27;20111;-80
2023/10/25 01:25:42;;;;;;;8.88;5.05;;;;;;;;;;5143503;27;20064;-80
2023/10/25 01:28:08;;;;;;;11.15;5.43;;;;;;;;;;5159873;27;20133;-79
2023/10/25 01:30:34;;;;;;;11.50;5.68;;;;;;;;;;5142691;27;20129;-79
2023/10/25 01:33:00;;;;;;;8.63;5.95;;;;;;;;;;5142645;27;20096;-80
2023/10/25 01:35:27;;;;;;;8.68;5.68;;;;;;;;;;5159853;27;20133;-80
2023/10/25 01:37:53;;;;;;;9.73;5.60;;;;;;;;;;5159518;27;20042;-80
2023/10/25 01:40:19;;;;;;;14.38;6.28;;;;;;;;;;5142493;27;20072;-80
2023/10/25 01:42:45;;;;;;;7.25;6.20;;;;;;;;;;5159437;27;20125;-80
2023/10/25 01:45:12;;;;;;;7.30;6.13;;;;;;;;;;5159640;27;20434;-80
2023/10/25 01:47:38;;;;;;;8.45;6.07;;;;;;;;;;5159396;27;20054;-80
2023/10/25 01:50:05;;;;;;;8.80;6.05;;;;;;;;;;5159580;27;20039;-80
2023/10/25 01:52:31;;;;;;;7.93;5.55;;;;;;;;;;5159127;27;20042;-80
2023/10/25 01:54:57;;;;;;;8.95;5.93;;;;;;;;;;5177782;27;20058;-80
2023/10/25 01:57:23;;;;;;;9.88;6.05;;;;;;;;;;5125010;27;20046;-80
2023/10/25 01:59:49;;;;;;;8.05;6.10;;;;;;;;;;5142150;27;20180;-79
2023/10/25 02:02:16;;;;;;;9.57;5.35;;;;;;;;;;5142056;27;20046;-80
2023/10/25 02:04:42;;;;;;;9.57;5.88;;;;;;;;;;5158730;27;20054;-80
2023/10/25 02:07:09;;;;;;;13.68;6.03;;;;;;;;;;5141835;27;20137;-79
2023/10/25 02:09:35;;;;;;;10.13;5.70;;;;;;;;;;5141877;27;20098;-80
2023/10/25 02:12:01;;;;;;;10.45;6.30;;;;;;;;;;5159109;27;20054;-79
2023/10/25 02:14:27;;;;;;;7.75;5.85;;;;;;;;;;5158859;27;20071;-80
2023/10/25 02:16:53;;;;;;;8.90;5.63;;;;;;;;;;5141664;27;20374;-80
2023/10/25 02:19:20;;;;;;;10.98;6.10;;;;;;;;;;5158600;27;20057;-80
2023/10/25 02:21:46;;;;;;;8.38;5.13;;;;;;;;;;5158710;27;20043;-79
2023/10/25 02:24:15;;;;;;;12.60;6.05;;;;;;;;;;5177202;27;20042;-80
2023/10/25 02:26:41;;;;;;;8.60;5.22;;;;;;;;;;5158525;27;20038;-80
2023/10/25 02:29:07;;;;;;;9.63;6.22;;;;;;;;;;5158785;27;20082;-80
2023/10/25 02:31:34;;;;;;;9.93;6.15;;;;;;;;;;5158695;27;20050;-80
2023/10/25 02:34:00;;;;;;;10.35;5.72;;;;;;;;;;5158472;27;20038;-80
2023/10/25 02:36:26;;;;;;;7.45;5.32;;;;;;;;;;5158337;27;20039;-79
2023/10/25 02:38:52;;;;;;;9.48;5.57;;;;;;;;;;5141603;27;20378;-80
2023/10/25 02:41:18;;;;;;;10.85;6.05;;;;;;;;;;5142231;27;20121;-80
2023/10/25 02:43:44;;;;;;;10.93;5.78;;;;;;;;;;5141247;27;20049;-80
2023/10/25 02:46:12;;;;;;;8.32;6.13;;;;;;;;;;5158405;27;20174;-80
2023/10/25 02:48:41;;;;;;;9.57;5.82;;;;;;;;;;5176469;27;20046;-81
2023/10/25 02:51:07;;;;;;;9.63;5.55;;;;;;;;;;5158093;27;20050;-81
2023/10/25 02:53:33;;;;;;;8.18;5.40;;;;;;;;;;5154378;27;20054;-80
2023/10/25 02:56:00;;;;;;;14.15;6.07;;;;;;;;;;5137454;27;20058;-81
2023/10/25 02:58:27;;;;;;;10.23;5.82;;;;;;;;;;5138375;27;20038;-81
2023/10/25 03:00:53;;;;;;;10.73;5.57;;;;;;;;;;5154557;27;20071;-80
2023/10/25 03:03:19;;;;;;;13.05;5.20;;;;;;;;;;5154498;27;20046;-80
2023/10/25 03:05:45;;;;;;;8.10;5.75;;;;;;;;;;5155601;27;20051;-80
2023/10/25 03:08:11;;;;;;;9.50;5.82;;;;;;;;;;5154405;27;20049;-80
2023/10/25 03:10:37;;;;;;;8.75;6.13;;;;;;;;;;5155612;27;20042;-80
2023/10/25 03:13:03;;;;;;;8.63;5.65;;;;;;;;;;5155510;27;20035;-80
2023/10/25 03:15:29;;;;;;;8.50;6.10;;;;;;;;;;5137426;27;20375;-80
2023/10/25 03:17:55;;;;;;;6.78;5.30;;;;;;;;;;5154281;27;20042;-80
2023/10/25 03:20:21;;;;;;;10.23;6.43;;;;;;;;;;5120246;27;20105;-80
2023/10/25 03:22:47;;;;;;;11.00;6.05;;;;;;;;;;5154264;27;20400;-80
2023/10/25 03:25:13;;;;;;;9.40;6.68;;;;;;;;;;5154493;27;20054;-79
2023/10/25 03:27:40;;;;;;;10.32;6.68;;;;;;;;;;5137303;27;20042;-80
2023/10/25 03:30:06;;;;;;;8.82;6.20;;;;;;;;;;5154446;27;20042;-80
2023/10/25 03:32:32;;;;;;;12.18;5.63;;;;;;;;;;5154375;27;20043;-80
2023/10/25 03:34:59;;;;;;;11.15;5.60;;;;;;;;;;5155242;27;20478;-80
2023/10/25 03:37:25;;;;;;;6.15;4.80;;;;;;;;;;5155162;27;20049;-80
2023/10/25 03:39:51;;;;;;;17.38;6.05;;;;;;;;;;5154071;27;20474;-80
2023/10/25 03:42:17;;;;;;;8.32;4.65;;;;;;;;;;5137188;27;20046;-80
2023/10/25 03:44:43;;;;;;;7.95;5.60;;;;;;;;;;5137057;27;20057;-80
2023/10/25 03:47:09;;;;;;;9.82;5.30;;;;;;;;;;5136998;27;20076;-80
2023/10/25 03:49:35;;;;;;;8.85;4.75;;;;;;;;;;5156031;27;20085;-80
2023/10/25 03:52:01;;;;;;;9.88;5.28;;;;;;;;;;5136953;27;20050;-80
2023/10/25 03:54:27;;;;;;;15.18;4.85;;;;;;;;;;5136179;27;20566;-80
2023/10/25 03:56:53;;;;;;;7.65;5.03;;;;;;;;;;5136878;27;20050;-81
2023/10/25 03:59:19;;;;;;;6.88;4.45;;;;;;;;;;5154087;27;20049;-80
2023/10/25 04:01:45;;;;;;;7.25;4.50;;;;;;;;;;5153971;27;20085;-80
2023/10/25 04:04:11;;;;;;;7.13;3.90;;;;;;;;;;5153923;27;20091;-79
2023/10/25 04:06:38;;;;;;;7.22;4.35;;;;;;;;;;5154077;27;20099;-79
2023/10/25 04:09:04;;;;;;;8.35;4.68;;;;;;;;;;5137028;27;20051;-81
2023/10/25 04:11:30;;;;;;;6.90;3.83;;;;;;;;;;5137654;27;20053;-79
2023/10/25 04:13:56;;;;;;;8.20;4.60;;;;;;;;;;5153687;27;20047;-80
2023/10/25 04:16:22;;;;;;;9.48;4.53;;;;;;;;;;5137246;27;20093;-80
2023/10/25 04:18:50;;;;;;;10.93;4.60;;;;;;;;;;5136718;27;20106;-80
2023/10/25 04:21:16;;;;;;;6.65;4.38;;;;;;;;;;5153714;27;20387;-79
2023/10/25 04:23:42;;;;;;;9.20;4.72;;;;;;;;;;5137613;27;20155;-80
2023/10/25 04:26:09;;;;;;;6.75;4.60;;;;;;;;;;5153705;27;20054;-80
2023/10/25 04:28:35;;;;;;;10.70;4.85;;;;;;;;;;5156516;27;20039;-80
2023/10/25 04:31:01;;;;;;;10.60;5.60;;;;;;;;;;5140299;27;20129;-80
2023/10/25 04:33:27;;;;;;;9.20;5.20;;;;;;;;;;5157357;27;20046;-80
2023/10/25 04:35:55;;;;;;;6.22;5.22;;;;;;;;;;5158368;27;20081;-80
2023/10/25 04:38:23;;;;;;;9.68;4.82;;;;;;;;;;5158440;27;20047;-80
2023/10/25 04:40:49;;;;;;;6.95;4.72;;;;;;;;;;5157204;27;20492;-80
2023/10/25 04:43:16;;;;;;;9.88;5.65;;;;;;;;;;5157151;27;20074;-80
2023/10/25 04:45:42;;;;;;;9.15;5.07;;;;;;;;;;5157181;27;20049;-80
2023/10/25 04:48:08;;;;;;;7.65;5.07;;;;;;;;;;5157245;27;20054;-80
2023/10/25 04:50:35;;;;;;;11.07;5.53;;;;;;;;;;5139820;27;20053;-79
2023/10/25 04:53:02;;;;;;;7.93;5.70;;;;;;;;;;5159618;27;20043;-80
2023/10/25 04:55:34;;;;;;;8.50;5.20;;;;;;;;;;5143448;27;20057;-80
2023/10/25 04:58:00;;;;;;;17.52;5.85;;;;;;;;;;5160341;27;20123;-79
2023/10/25 05:00:28;;;;;;;6.57;5.70;;;;;;;;;;5143996;27;20050;-79
2023/10/25 05:02:54;;;;;;;11.15;6.22;;;;;;;;;;5178782;27;20049;-80
2023/10/25 05:05:20;;;;;;;9.57;6.40;;;;;;;;;;5160066;27;20090;-80
2023/10/25 05:07:47;;;;;;;11.20;6.25;;;;;;;;;;5160388;27;20056;-80
2023/10/25 05:10:13;;;;;;;11.13;6.40;;;;;;;;;;5161204;27;20129;-80
2023/10/25 05:12:46;;;;;;;9.48;6.55;;;;;;;;;;5143727;27;20042;-79
2023/10/25 05:15:17;;;;;;;12.45;6.65;;;;;;;;;;5160986;27;20097;-79
2023/10/25 05:17:44;;;;;;;11.73;6.65;;;;;;;;;;5142315;27;20038;-80
2023/10/25 05:20:10;;;;;;;12.80;6.78;;;;;;;;;;5160210;27;20502;-80
2023/10/25 05:22:38;;;;;;;14.38;6.90;;;;;;;;;;5178539;27;20050;-79
2023/10/25 05:25:05;;;;;;;13.20;6.93;;;;;;;;;;5160064;27;20541;-80
2023/10/25 05:27:32;;;;;;;14.45;7.70;;;;;;;;;;5143566;27;20051;-80
2023/10/25 05:30:04;;;;;;;9.90;6.70;;;;;;;;;;5142769;27;20054;-80
2023/10/25 05:32:35;;;;;;;11.82;6.93;;;;;;;;;;5127364;27;20042;-80
2023/10/25 05:35:01;;;;;;;8.50;6.53;;;;;;;;;;5160370;27;20054;-80
2023/10/25 05:37:28;;;;;;;8.32;6.07;;;;;;;;;;5159851;27;20091;-79
2023/10/25 05:39:54;;;;;;;13.35;6.45;;;;;;;;;;5158547;27;20046;-80
2023/10/25 05:42:23;;;;;;;11.50;5.90;;;;;;;;;;5159700;27;20034;-81
2023/10/25 05:44:56;;;;;;;10.55;6.43;;;;;;;;;;5159526;27;20042;-79
2023/10/25 05:47:26;;;;;;;10.05;5.88;;;;;;;;;;5143121;27;20042;-80
2023/10/25 05:49:52;;;;;;;10.85;6.43;;;;;;;;;;5159535;27;20086;-79
2023/10/25 05:52:19;;;;;;;7.15;6.45;;;;;;;;;;5142012;27;20046;-80
2023/10/25 05:54:45;;;;;;;10.20;5.97;;;;;;;;;;5159099;27;20049;-79
2023/10/25 05:57:11;;;;;;;9.30;6.63;;;;;;;;;;5160269;27;20046;-80
2023/10/25 05:59:38;;;;;;;10.50;6.28;;;;;;;;;;5142004;27;20053;-80
2023/10/25 06:02:13;;;;;;;13.43;6.60;;;;;;;;;;5160029;27;20378;-80
2023/10/25 06:04:40;;;;;;;9.40;5.85;;;;;;;;;;5160133;27;20054;-79
2023/10/25 06:07:07;;;;;;;7.60;5.75;;;;;;;;;;5159173;27;20049;-79
2023/10/25 06:09:34;;;;;;;11.82;5.85;;;;;;;;;;5159274;27;20045;-78
2023/10/25 06:12:00;;;;;;;13.35;5.70;;;;;;;;;;5141851;27;20137;-78
2023/10/25 06:14:28;;;;;;;9.77;6.20;;;;;;;;;;5177365;27;20087;-78
2023/10/25 06:16:54;;;;;;;9.45;5.90;;;;;;;;;;5159001;27;20049;-79
2023/10/25 06:19:20;;;;;;;14.38;6.00;;;;;;;;;;5158724;27;20102;-79
2023/10/25 06:21:46;;;;;;;10.65;5.82;;;;;;;;;;5159005;27;20045;-79
2023/10/25 06:24:12;;;;;;;17.10;6.47;;;;;;;;;;5158884;27;20050;-79
2023/10/25 06:26:38;;;;;;;13.15;6.47;;;;;;;;;;5142516;27;20133;-79
2023/10/25 06:29:04;;;;;;;11.27;7.13;;;;;;;;;;5158569;27;20042;-79
2023/10/25 06:31:30;;;;;;;9.00;5.82;;;;;;;;;;5141443;27;20085;-79
2023/10/25 06:33:57;;;;;;;6.50;5.88;;;;;;;;;;5177234;27;20042;-79
2023/10/25 06:36:23;;;;;;;8.55;5.25;;;;;;;;;;5159505;27;20125;-79
2023/10/25 06:38:49;;;;;;;9.50;5.65;;;;;;;;;;5177013;27;20054;-79
2023/10/25 06:41:19;;;;;;;13.70;5.78;;;;;;;;;;5177543;27;20053;-79
2023/10/25 06:43:45;;;;;;;12.55;6.10;;;;;;;;;;5141078;27;20042;-79
2023/10/25 06:46:12;;;;;;;9.00;5.60;;;;;;;;;;5158353;27;20049;-79
2023/10/25 06:48:38;;;;;;;12.85;5.75;;;;;;;;;;5158281;27;20062;-79
2023/10/25 06:51:05;;;;;;;7.88;5.90;;;;;;;;;;5140714;27;20046;-79
2023/10/25 06:53:31;;;;;;;14.60;6.32;;;;;;;;;;5154492;27;20058;-79
2023/10/25 06:55:57;;;;;;;10.98;6.00;;;;;;;;;;5155768;27;20058;-81
2023/10/25 06:58:24;;;;;;;12.30;6.20;;;;;;;;;;5155593;27;20372;-79
2023/10/25 07:00:51;;;;;;;12.00;6.55;;;;;;;;;;5155781;27;20084;-78
2023/10/25 07:03:18;;;;;;;8.02;5.55;;;;;;;;;;5155770;27;20082;-80
2023/10/25 07:05:45;;;;;;;11.55;6.35;;;;;;;;;;5138260;27;20133;-78
2023/10/25 07:08:11;;;;;;;9.93;6.35;;;;;;;;;;5154943;27;20107;-78
2023/10/25 07:10:37;;;;;;;11.10;5.50;;;;;;;;;;5154672;27;20065;-79
2023/10/25 07:13:04;;;;;;;11.65;6.63;;;;;;;;;;5137291;27;20474;-79
2023/10/25 07:15:32;;;;;;;9.30;6.40;;;;;;;;;;5154877;27;20046;-79
2023/10/25 07:17:58;;;;;;;7.65;6.20;;;;;;;;;;5137251;27;20054;-80
2023/10/25 07:20:25;;;;;;;10.40;6.47;;;;;;;;;;5155793;27;20047;-79
2023/10/25 07:22:51;;;;;;;12.82;7.38;;;;;;;;;;5138121;27;20489;-79
2023/10/25 07:25:17;;;;;;;10.13;6.10;;;;;;;;;;5154649;27;20038;-78
2023/10/25 07:27:43;;;;;;;12.80;6.68;;;;;;;;;;5155491;27;20103;-79
2023/10/25 07:30:09;;;;;;;12.50;7.38;;;;;;;;;;5154137;27;20069;-79
2023/10/25 07:32:35;;;;;;;9.05;7.22;;;;;;;;;;5137794;27;20046;-79
2023/10/25 07:35:02;;;;;;;12.50;7.90;;;;;;;;;;5155139;27;20035;-80
2023/10/25 07:37:29;;;;;;;9.90;7.10;;;;;;;;;;5136909;27;20055;-79
2023/10/25 07:39:55;;;;;;;12.95;7.30;;;;;;;;;;5154212;27;20498;-79
2023/10/25 07:42:21;;;;;;;15.45;7.18;;;;;;;;;;5155090;27;20042;-79
2023/10/25 07:44:47;;;;;;;9.10;7.35;;;;;;;;;;5155230;27;20126;-79
2023/10/25 07:47:14;;;;;;;18.88;7.60;;;;;;;;;;5153914;27;20482;-80
2023/10/25 07:49:45;;;;;;;11.20;7.20;;;;;;;;;;5137127;27;20051;-80
2023/10/25 07:52:11;;;;;;;12.10;7.28;;;;;;;;;;5153769;27;20410;-81
2023/10/25 07:54:37;;;;;;;8.70;7.28;;;;;;;;;;5153862;27;20066;-79
2023/10/25 07:57:04;;;;;;;13.13;7.18;;;;;;;;;;5137758;27;20363;-79
2023/10/25 07:59:30;;;;;;;13.07;7.57;;;;;;;;;;5155112;27;20051;-79
2023/10/25 08:01:59;;;;;;;12.77;7.50;;;;;;;;;;5153990;27;20099;-79
2023/10/25 08:04:25;;;;;;;11.93;6.75;;;;;;;;;;5140825;27;20494;-79
2023/10/25 08:06:53;;;;;;;11.60;7.57;;;;;;;;;;5159982;27;20107;-79
2023/10/25 08:09:19;;;;;;;14.30;7.93;;;;;;;;;;5158106;27;20402;-79
2023/10/25 08:11:45;;;;;;;10.23;8.00;;;;;;;;;;5158084;27;20058;-79
2023/10/25 08:14:11;;;;;;;10.63;7.07;;;;;;;;;;5157852;27;20501;-78
2023/10/25 08:16:42;;;;;;;12.93;8.40;;;;;;;;;;5157956;27;20046;-78
2023/10/25 08:19:08;;;;;;;11.05;8.02;;;;;;;;;;5140611;27;20394;-78
2023/10/25 08:21:35;;;;;;;13.88;8.55;;;;;;;;;;5157621;27;20047;-78
2023/10/25 08:24:02;;;;;;;8.65;7.82;;;;;;;;;;5157658;27;20053;-78
2023/10/25 08:26:28;;;;;;;11.73;8.05;;;;;;;;;;5157812;27;20054;-78
2023/10/25 08:28:54;;;;;;;10.15;7.68;;;;;;;;;;5158373;27;20115;-78
2023/10/25 08:31:20;;;;;;;11.35;7.93;;;;;;;;;;5158515;27;20038;-78
2023/10/25 08:33:46;;;;;;;9.40;7.55;;;;;;;;;;5157504;27;20146;-78
2023/10/25 08:36:13;;;;;;;10.40;7.32;;;;;;;;;;5141076;27;20047;-78
2023/10/25 08:38:39;;;;;;;13.43;7.68;;;;;;;;;;5124060;27;20053;-78
2023/10/25 08:41:05;;;;;;;12.02;8.02;;;;;;;;;;5158337;27;20042;-79
2023/10/25 08:43:35;;;;;;;10.95;6.63;;;;;;;;;;5158440;27;20045;-78
2023/10/25 08:46:05;;;;;;;11.45;7.18;;;;;;;;;;5157389;27;20050;-78
2023/10/25 08:48:32;;;;;;;12.25;7.63;;;;;;;;;;5140122;27;20050;-78
2023/10/25 08:51:01;;;;;;;10.50;7.60;;;;;;;;;;5140048;27;20043;-78
2023/10/25 08:53:28;;;;;;;11.65;8.18;;;;;;;;;;5157077;27;20376;-78
2023/10/25 08:55:55;;;;;;;11.15;7.55;;;;;;;;;;5157256;27;20055;-78
2023/10/25 08:58:21;;;;;;;11.75;7.82;;;;;;;;;;5158058;27;20046;-78
2023/10/25 09:00:48;;;;;;;10.68;6.57;;;;;;;;;;5157217;27;20047;-78
2023/10/25 09:03:33;;;;;;;7.93;7.10;;;;;;;;;;5157893;27;20055;-78
2023/10/25 09:05:59;;;;;;;9.45;6.97;;;;;;;;;;5139781;27;20039;-78
2023/10/25 09:08:26;;;;;;;8.77;6.65;;;;;;;;;;5157967;27;20045;-78
2023/10/25 09:11:02;;;;;;;10.95;6.40;;;;;;;;;;5140767;27;20175;-78
2023/10/25 09:13:36;;;;;;;10.65;6.30;;;;;;;;;;5139989;27;20043;-79
2023/10/25 09:16:06;;;;;;;9.87;5.77;;;;;;;;;;5157683;27;20043;-78
2023/10/25 09:18:33;;;;;;;8.85;5.20;;;;;;;;;;5156702;27;20082;-78
2023/10/25 09:20:59;;;;;;;8.07;5.88;;;;;;;;;;5157526;27;20043;-78
2023/10/25 09:23:25;;;;;;;11.27;6.57;;;;;;;;;;5157551;27;20055;-78
2023/10/25 09:25:51;;;;;;;7.65;5.43;;;;;;;;;;5157263;27;20122;-78
2023/10/25 09:28:27;;;;;;;8.32;5.93;;;;;;;;;;5156876;27;20042;-78
2023/10/25 09:31:03;;;;;;;12.60;6.18;;;;;;;;;;5156548;27;20134;-78
2023/10/25 09:33:29;;;;;;;6.88;5.47;;;;;;;;;;5156296;27;20039;-78
2023/10/25 09:35:56;;;;;;;8.82;5.30;;;;;;;;;;5157284;27;20049;-78
2023/10/25 09:38:23;;;;;;;10.07;5.05;;;;;;;;;;5156381;27;20047;-78
2023/10/25 09:40:50;;;;;;;8.88;5.50;;;;;;;;;;5139348;27;20049;-79
2023/10/25 09:43:20;;;;;;;10.25;5.32;;;;;;;;;;5156665;27;20082;-78
2023/10/25 09:45:57;;;;;;;8.63;5.88;;;;;;;;;;5156571;27;20051;-78
2023/10/25 09:48:24;;;;;;;7.47;5.13;;;;;;;;;;5157128;27;20051;-78
2023/10/25 09:51:00;;;;;;;8.20;5.43;;;;;;;;;;5138897;27;20043;-78
2023/10/25 09:53:30;;;;;;;6.78;5.03;;;;;;;;;;5161344;27;20458;-79
2023/10/25 09:56:02;;;;;;;7.43;6.05;;;;;;;;;;5159517;27;20090;-78
2023/10/25 09:58:30;;;;;;;6.85;5.10;;;;;;;;;;5159905;27;20047;-78
2023/10/25 10:00:56;;;;;;;8.07;6.18;;;;;;;;;;5159471;27;20053;-78
2023/10/25 10:03:30;;;;;;;5.53;4.30;;;;;;;;;;5159078;27;20394;-79
2023/10/25 10:06:03;;;;;;;6.40;5.38;;;;;;;;;;5159627;27;20046;-79
2023/10/25 10:08:50;;;;;;;8.60;5.25;;;;;;;;;;5159600;27;20524;-78
2023/10/25 10:11:17;;;;;;;10.40;5.07;;;;;;;;;;5159184;27;20553;-79
2023/10/25 10:13:43;;;;;;;5.13;4.43;;;;;;;;;;5158951;27;20042;-78
2023/10/25 10:16:13;;;;;;;5.45;4.53;;;;;;;;;;5159387;27;20050;-78
2023/10/25 10:18:47;;;;;;;6.00;4.72;;;;;;;;;;5141888;27;20046;-78
2023/10/25 10:21:16;;;;;;;;;;;;;;;;;;5160102;27;20490;-79
2023/10/25 10:23:53;;;;;;;6.57;4.15;;;;;;;;;;5141924;27;20070;-79
2023/10/25 10:26:38;;;;;;;9.50;5.22;;;;;;;;;;5159212;27;20046;-79
2023/10/25 10:29:04;;;;;;;6.78;4.85;;;;;;;;;;5158521;27;20038;-80
2023/10/25 10:31:30;;;;;;;7.65;4.78;;;;;;;;;;5177174;27;20053;-80
2023/10/25 10:33:56;;;;;;;9.82;4.68;;;;;;;;;;5158544;27;20133;-78
2023/10/25 10:36:27;;;;;;;6.20;3.72;;;;;;;;;;5158672;27;20046;-79
2023/10/25 10:39:15;;;;;;;6.60;3.65;;;;;;;;;;5177033;27;20045;-79
2023/10/25 10:41:42;;;;;;;6.93;3.45;;;;;;;;;;5158570;27;20046;-78
2023/10/25 10:44:08;;;;;;;8.38;3.30;;;;;;;;;;5159387;27;20140;-78
2023/10/25 10:46:38;;;;;;;7.60;3.17;;;;;;;;;;5141425;27;20457;-82
2023/10/25 10:49:10;;;;;;;6.35;3.53;;;;;;;;;;5176794;27;20486;-80
2023/10/25 10:51:37;;;;;;;4.47;3.17;;;;;;;;;;5177428;27;20468;-79
2023/10/25 10:54:03;;;;;;;5.00;3.33;;;;;;;;;;5140420;27;20083;-79
2023/10/25 10:56:29;;;;;;;7.32;3.15;;;;;;;;;;5159239;27;20386;-79
2023/10/25 10:58:55;;;;;;;7.13;3.05;;;;;;;;;;5140767;27;20051;-79
2023/10/25 11:01:21;;;;;;;7.35;3.17;;;;;;;;;;5157962;27;20099;-79
2023/10/25 11:03:49;;;;;;;6.57;3.00;;;;;;;;;;5141811;27;20050;-78
2023/10/25 11:06:15;;;;;;;5.57;3.25;;;;;;;;;;5158487;27;20069;-80
2023/10/25 11:08:43;;;;;;;5.65;3.67;;;;;;;;;;5176540;27;20098;-79
2023/10/25 11:11:09;;;;;;;8.52;3.72;;;;;;;;;;5158329;27;20046;-79
2023/10/25 11:13:35;;;;;;;4.22;3.17;;;;;;;;;;5176213;27;20038;-79
2023/10/25 11:16:01;;;;;;;6.47;3.80;;;;;;;;;;5140805;27;20130;-78
2023/10/25 11:18:28;;;;;;;5.97;3.78;;;;;;;;;;5176319;27;20378;-79
2023/10/25 11:20:54;;;;;;;7.78;3.47;;;;;;;;;;5157990;27;20049;-78
2023/10/25 11:23:20;;;;;;;7.03;3.53;;;;;;;;;;5176395;27;20046;-78
2023/10/25 11:25:46;;;;;;;6.80;3.70;;;;;;;;;;5140768;27;20046;-78
2023/10/25 11:28:12;;;;;;;3.92;3.33;;;;;;;;;;5157879;27;20058;-79
2023/10/25 11:30:40;;;;;;;5.80;3.92;;;;;;;;;;5176235;27;20129;-78
2023/10/25 11:33:06;;;;;;;8.13;3.97;;;;;;;;;;5158101;27;20431;-78
2023/10/25 11:35:35;;;;;;;5.28;3.75;;;;;;;;;;5157724;27;20042;-79
2023/10/25 11:38:02;;;;;;;6.70;3.60;;;;;;;;;;5142518;27;20042;-78
2023/10/25 11:40:35;;;;;;;8.55;4.50;;;;;;;;;;5161933;27;20242;-78
2023/10/25 11:43:01;;;;;;;8.02;3.83;;;;;;;;;;5162177;27;20385;-78
2023/10/25 11:45:27;;;;;;;6.80;4.20;;;;;;;;;;5162378;27;20042;-78
2023/10/25 11:47:54;;;;;;;8.15;4.40;;;;;;;;;;5180338;27;20079;-78
2023/10/25 11:50:20;;;;;;;6.57;4.22;;;;;;;;;;5161924;27;20430;-78
2023/10/25 11:52:46;;;;;;;7.10;3.80;;;;;;;;;;5180107;27;20389;-78
2023/10/25 11:55:12;;;;;;;7.43;4.60;;;;;;;;;;5143964;27;20076;-78
2023/10/25 11:57:39;;;;;;;6.38;4.20;;;;;;;;;;5180187;27;20038;-78
2023/10/25 12:00:08;;;;;;;6.20;4.35;;;;;;;;;;5161793;27;20477;-78
2023/10/25 12:02:35;;;;;;;9.02;4.30;;;;;;;;;;5144474;27;20050;-78
2023/10/25 12:05:03;;;;;;;5.93;3.88;;;;;;;;;;5161287;27;20050;-80
2023/10/25 12:07:31;;;;;;;6.53;4.20;;;;;;;;;;5161481;27;20114;-79
2023/10/25 12:09:57;;;;;;;5.65;4.07;;;;;;;;;;5161456;27;20060;-79
2023/10/25 12:12:28;;;;;;;9.40;4.88;;;;;;;;;;5179924;27;20046;-78
2023/10/25 12:14:54;;;;;;;8.07;4.20;;;;;;;;;;5161596;27;20431;-78
2023/10/25 12:17:20;;;;;;;6.82;4.47;;;;;;;;;;5144216;27;20148;-78
2023/10/25 12:19:48;;;;;;;7.65;4.70;;;;;;;;;;5179718;27;20050;-78
2023/10/25 12:22:14;;;;;;;6.22;3.65;;;;;;;;;;5144457;27;20085;-78
2023/10/25 12:24:41;;;;;;;5.60;3.92;;;;;;;;;;5161093;27;20073;-78
2023/10/25 12:27:08;;;;;;;5.75;4.20;;;;;;;;;;5161336;27;20054;-78
2023/10/25 12:29:34;;;;;;;5.65;4.50;;;;;;;;;;5161237;27;20047;-78
2023/10/25 12:32:00;;;;;;;8.90;3.80;;;;;;;;;;5179535;27;20512;-78
2023/10/25 12:34:28;;;;;;;7.25;4.30;;;;;;;;;;5144076;27;20046;-78
2023/10/25 12:36:54;;;;;;;6.07;3.17;;;;;;;;;;5161202;27;20046;-78
2023/10/25 12:39:20;;;;;;;5.68;3.38;;;;;;;;;;5160726;27;20049;-78
2023/10/25 12:41:47;;;;;;;6.32;3.50;;;;;;;;;;5161308;27;20038;-78
2023/10/25 12:44:13;;;;;;;7.35;3.75;;;;;;;;;;5161818;27;20103;-78
2023/10/25 12:46:39;;;;;;;7.45;3.75;;;;;;;;;;5143653;27;20127;-78
2023/10/25 12:49:06;;;;;;;8.02;3.53;;;;;;;;;;5160329;27;20159;-78
2023/10/25 12:51:32;;;;;;;5.63;3.63;;;;;;;;;;5160627;27;20393;-78
2023/10/25 12:53:58;;;;;;;6.05;3.17;;;;;;;;;;5178905;27;20059;-79
2023/10/25 12:56:26;;;;;;;5.97;3.22;;;;;;;;;;5144334;27;20449;-78
2023/10/25 12:58:52;;;;;;;5.15;3.17;;;;;;;;;;5161474;27;20121;-78
2023/10/25 13:01:19;;;;;;;3.15;2.88;;;;;;;;;;5160953;27;20046;-78
2023/10/25 13:03:45;;;;;;;8.43;3.53;;;;;;;;;;5144348;27;20050;-78
2023/10/25 13:06:12;;;;;;;6.30;3.30;;;;;;;;;;5178924;27;20049;-79
2023/10/25 13:08:38;;;;;;;5.47;2.63;;;;;;;;;;5143168;27;20141;-79
2023/10/25 13:11:04;;;;;;;5.63;3.00;;;;;;;;;;5143966;27;20081;-79
2023/10/25 13:13:30;;;;;;;5.30;2.40;;;;;;;;;;5160319;27;20042;-79
2023/10/25 13:15:56;;;;;;;5.38;3.13;;;;;;;;;;5178703;27;20038;-79
2023/10/25 13:18:22;;;;;;;4.70;3.22;;;;;;;;;;5143273;27;20474;-79
2023/10/25 13:20:49;;;;;;;4.43;2.97;;;;;;;;;;5160158;27;20046;-79
2023/10/25 13:23:15;;;;;;;5.07;2.97;;;;;;;;;;5142968;27;20054;-79
2023/10/25 13:25:41;;;;;;;5.80;2.45;;;;;;;;;;5159688;27;20552;-79
2023/10/25 13:28:07;;;;;;;3.53;3.22;;;;;;;;;;5160175;27;20102;-79
2023/10/25 13:30:34;;;;;;;6.13;2.95;;;;;;;;;;5178454;27;20134;-79
2023/10/25 13:33:00;;;;;;;6.20;2.92;;;;;;;;;;5159876;27;20042;-79
2023/10/25 13:35:26;;;;;;;6.80;3.13;;;;;;;;;;5159671;27;20061;-78
2023/10/25 13:37:52;;;;;;;6.13;2.80;;;;;;;;;;5178205;27;20089;-78
2023/10/25 13:40:18;;;;;;;7.25;3.00;;;;;;;;;;5142440;27;20053;-78
2023/10/25 13:42:44;;;;;;;8.88;3.10;;;;;;;;;;5142614;27;20042;-78
2023/10/25 13:45:10;;;;;;;6.50;1.85;;;;;;;;;;5159655;27;20082;-78
2023/10/25 13:47:37;;;;;;;5.97;2.60;;;;;;;;;;5160535;27;20099;-78
2023/10/25 13:50:03;;;;;;;4.10;1.88;;;;;;;;;;5159451;27;20129;-78
2023/10/25 13:52:29;;;;;;;6.60;2.30;;;;;;;;;;5178233;27;20042;-78
2023/10/25 13:54:55;;;;;;;4.63;1.90;;;;;;;;;;5177886;27;20050;-78
2023/10/25 13:57:21;;;;;;;5.15;1.90;;;;;;;;;;5142508;27;20390;-78
2023/10/25 13:59:47;;;;;;;1.90;1.33;;;;;;;;;;5158711;27;20049;-78
2023/10/25 14:02:13;;;;;;;4.57;1.52;;;;;;;;;;5142139;27;20385;-78
2023/10/25 14:04:39;;;;;;;5.28;1.67;;;;;;;;;;5159127;27;20042;-78
2023/10/25 14:07:05;;;;;;;4.47;1.67;;;;;;;;;;5142839;27;20113;-78
2023/10/25 14:09:31;;;;;;;7.15;1.52;;;;;;;;;;5159300;27;20078;-78
2023/10/25 14:11:57;;;;;;;6.25;2.10;;;;;;;;;;5158909;27;20099;-78
2023/10/25 14:14:23;;;;;;;5.53;1.70;;;;;;;;;;5141695;27;20126;-78
2023/10/25 14:16:50;;;;;;;6.88;1.08;;;;;;;;;;5159121;27;20050;-78
2023/10/25 14:19:17;;;;;;;6.40;1.35;;;;;;;;;;5142545;27;20046;-78
2023/10/25 14:21:44;;;;;;;5.10;1.08;;;;;;;;;;5159446;27;20057;-78
2023/10/25 14:24:10;;;;;;;3.85;1.50;;;;;;;;;;5141609;27;20156;-78
2023/10/25 14:26:40;;;;;;;3.42;1.20;;;;;;;;;;5124553;27;20497;-78
2023/10/25 14:29:07;;;;;;;2.90;1.17;;;;;;;;;;5159183;27;20130;-78
2023/10/25 14:31:34;;;;;;;4.45;1.90;;;;;;;;;;5158509;27;20046;-78
2023/10/25 14:34:01;;;;;;;3.65;1.73;;;;;;;;;;5159021;27;20378;-78
2023/10/25 14:36:28;;;;;;;5.65;1.83;;;;;;;;;;5177779;27;20054;-78